sensor_id;sensor_type;location;lat;lon;timestamp;pressure;altitude;pressure_sealevel;temperature;humidity
51526;BME280;37611;51.794;21.590;2023-05-19T00:01:20;101015.90;;;10.13;100.00
51526;BME280;37611;51.794;21.590;2023-05-19T00:05:22;101017.88;;;10.15;100.00
51526;BME280;37611;51.794;21.590;2023-05-19T00:09:25;101016.52;;;10.17;100.00
51526;BME280;37611;51.794;21.590;2023-05-19T00:13:27;101010.84;;;10.16;100.00
51526;BME280;37611;51.794;21.590;2023-05-19T00:17:29;101003.92;;;10.15;100.00
51526;BME280;37611;51.794;21.590;2023-05-19T00:21:31;101005.83;;;10.13;100.00
51526;BME280;37611;51.794;21.590;2023-05-19T00:25:33;101002.73;;;10.12;100.00
51526;BME280;37611;51.794;21.590;2023-05-19T00:29:35;101001.61;;;10.11;100.00
51526;BME280;37611;51.794;21.590;2023-05-19T00:33:36;100995.02;;;10.10;100.00
51526;BME280;37611;51.794;21.590;2023-05-19T00:37:38;100990.81;;;10.10;100.00
51526;BME280;37611;51.794;21.590;2023-05-19T00:41:40;100986.14;;;10.09;100.00
51526;BME280;37611;51.794;21.590;2023-05-19T00:45:41;100987.07;;;10.04;100.00
51526;BME280;37611;51.794;21.590;2023-05-19T00:49:43;100982.59;;;10.01;100.00
51526;BME280;37611;51.794;21.590;2023-05-19T00:53:45;100986.14;;;9.99;100.00
51526;BME280;37611;51.794;21.590;2023-05-19T00:57:49;100987.80;;;9.96;100.00
51526;BME280;37611;51.794;21.590;2023-05-19T01:01:51;100992.66;;;9.96;100.00
51526;BME280;37611;51.794;21.590;2023-05-19T01:05:53;100994.23;;;9.94;100.00
51526;BME280;37611;51.794;21.590;2023-05-19T01:09:55;100994.77;;;9.91;100.00
51526;BME280;37611;51.794;21.590;2023-05-19T01:13:57;100994.55;;;9.90;100.00
51526;BME280;37611;51.794;21.590;2023-05-19T01:18:11;100992.59;;;9.90;100.00
51526;BME280;37611;51.794;21.590;2023-05-19T01:27:12;100989.58;;;9.91;100.00
51526;BME280;37611;51.794;21.590;2023-05-19T01:31:21;100985.08;;;9.90;100.00
51526;BME280;37611;51.794;21.590;2023-05-19T01:35:25;100984.09;;;9.87;100.00
51526;BME280;37611;51.794;21.590;2023-05-19T01:39:28;100986.14;;;9.86;100.00
51526;BME280;37611;51.794;21.590;2023-05-19T01:43:30;100981.89;;;9.86;100.00
51526;BME280;37611;51.794;21.590;2023-05-19T01:47:35;100977.80;;;9.87;100.00
51526;BME280;37611;51.794;21.590;2023-05-19T01:51:40;100977.66;;;9.84;100.00
51526;BME280;37611;51.794;21.590;2023-05-19T01:55:47;100977.05;;;9.84;100.00
51526;BME280;37611;51.794;21.590;2023-05-19T02:00:25;100978.88;;;9.85;100.00
51526;BME280;37611;51.794;21.590;2023-05-19T02:08:46;100973.70;;;9.84;100.00
51526;BME280;37611;51.794;21.590;2023-05-19T02:12:53;100974.20;;;9.82;100.00
51526;BME280;37611;51.794;21.590;2023-05-19T02:17:00;100975.46;;;9.77;100.00
51526;BME280;37611;51.794;21.590;2023-05-19T02:21:03;100975.66;;;9.74;100.00
51526;BME280;37611;51.794;21.590;2023-05-19T02:25:06;100977.41;;;9.70;100.00
51526;BME280;37611;51.794;21.590;2023-05-19T02:29:08;100977.23;;;9.66;100.00
51526;BME280;37611;51.794;21.590;2023-05-19T02:33:09;100974.70;;;9.65;100.00
51526;BME280;37611;51.794;21.590;2023-05-19T02:37:15;100970.52;;;9.62;100.00
51526;BME280;37611;51.794;21.590;2023-05-19T02:41:16;100972.89;;;9.63;100.00
51526;BME280;37611;51.794;21.590;2023-05-19T02:45:18;100971.79;;;9.64;100.00
51526;BME280;37611;51.794;21.590;2023-05-19T02:49:20;100970.67;;;9.65;100.00
51526;BME280;37611;51.794;21.590;2023-05-19T02:53:21;100973.05;;;9.64;100.00
51526;BME280;37611;51.794;21.590;2023-05-19T02:57:23;100968.39;;;9.61;100.00
51526;BME280;37611;51.794;21.590;2023-05-19T03:01:25;100972.73;;;9.63;100.00
51526;BME280;37611;51.794;21.590;2023-05-19T03:05:27;100974.91;;;9.62;100.00
51526;BME280;37611;51.794;21.590;2023-05-19T03:09:30;100973.36;;;9.62;100.00
51526;BME280;37611;51.794;21.590;2023-05-19T03:13:32;100975.85;;;9.62;100.00
51526;BME280;37611;51.794;21.590;2023-05-19T03:17:34;100973.98;;;9.65;100.00
51526;BME280;37611;51.794;21.590;2023-05-19T03:21:36;100975.70;;;9.65;100.00
51526;BME280;37611;51.794;21.590;2023-05-19T03:25:38;100976.02;;;9.68;100.00
51526;BME280;37611;51.794;21.590;2023-05-19T03:29:39;100977.51;;;9.69;100.00
51526;BME280;37611;51.794;21.590;2023-05-19T03:33:41;100979.41;;;9.69;100.00
51526;BME280;37611;51.794;21.590;2023-05-19T03:37:43;100980.16;;;9.71;100.00
51526;BME280;37611;51.794;21.590;2023-05-19T03:41:44;100978.67;;;9.72;100.00
51526;BME280;37611;51.794;21.590;2023-05-19T03:45:46;100983.27;;;9.76;100.00
51526;BME280;37611;51.794;21.590;2023-05-19T03:49:48;100987.23;;;9.78;100.00
51526;BME280;37611;51.794;21.590;2023-05-19T03:53:49;100988.06;;;9.79;100.00
51526;BME280;37611;51.794;21.590;2023-05-19T03:57:52;100990.63;;;9.81;100.00
51526;BME280;37611;51.794;21.590;2023-05-19T04:01:54;100991.41;;;9.85;100.00
51526;BME280;37611;51.794;21.590;2023-05-19T04:05:56;100991.05;;;9.88;100.00
51526;BME280;37611;51.794;21.590;2023-05-19T04:09:58;100991.20;;;9.92;100.00
51526;BME280;37611;51.794;21.590;2023-05-19T04:14:00;100995.27;;;10.00;100.00
51526;BME280;37611;51.794;21.590;2023-05-19T04:18:01;100992.77;;;10.05;100.00
51526;BME280;37611;51.794;21.590;2023-05-19T04:22:03;100994.22;;;10.09;100.00
51526;BME280;37611;51.794;21.590;2023-05-19T04:26:05;100996.59;;;10.14;100.00
51526;BME280;37611;51.794;21.590;2023-05-19T04:30:08;101001.81;;;10.21;100.00
51526;BME280;37611;51.794;21.590;2023-05-19T04:34:10;101003.53;;;10.24;100.00
51526;BME280;37611;51.794;21.590;2023-05-19T04:38:12;101000.17;;;10.26;100.00
51526;BME280;37611;51.794;21.590;2023-05-19T04:42:13;100999.73;;;10.34;100.00
51526;BME280;37611;51.794;21.590;2023-05-19T04:46:19;100998.94;;;10.35;100.00
51526;BME280;37611;51.794;21.590;2023-05-19T04:50:24;100995.92;;;10.40;100.00
51526;BME280;37611;51.794;21.590;2023-05-19T04:54:26;100994.64;;;10.49;100.00
51526;BME280;37611;51.794;21.590;2023-05-19T04:58:28;100995.55;;;10.61;100.00
51526;BME280;37611;51.794;21.590;2023-05-19T05:02:30;100999.14;;;10.69;100.00
51526;BME280;37611;51.794;21.590;2023-05-19T05:06:32;100993.98;;;10.73;100.00
51526;BME280;37611;51.794;21.590;2023-05-19T05:10:34;100998.73;;;10.88;100.00
51526;BME280;37611;51.794;21.590;2023-05-19T05:14:36;100996.79;;;10.98;100.00
51526;BME280;37611;51.794;21.590;2023-05-19T05:18:38;100997.73;;;11.08;100.00
51526;BME280;37611;51.794;21.590;2023-05-19T05:22:40;100999.09;;;11.13;100.00
51526;BME280;37611;51.794;21.590;2023-05-19T05:26:42;100996.02;;;11.18;100.00
51526;BME280;37611;51.794;21.590;2023-05-19T05:30:44;100999.50;;;11.26;100.00
51526;BME280;37611;51.794;21.590;2023-05-19T05:34:46;101006.70;;;11.32;100.00
51526;BME280;37611;51.794;21.590;2023-05-19T05:38:48;101008.12;;;11.40;100.00
51526;BME280;37611;51.794;21.590;2023-05-19T05:42:50;101009.45;;;11.43;100.00
51526;BME280;37611;51.794;21.590;2023-05-19T05:46:52;101005.68;;;11.42;100.00
51526;BME280;37611;51.794;21.590;2023-05-19T05:50:55;101007.66;;;11.45;100.00
51526;BME280;37611;51.794;21.590;2023-05-19T05:54:57;101010.63;;;11.45;100.00
51526;BME280;37611;51.794;21.590;2023-05-19T05:59:00;101008.74;;;11.45;100.00
51526;BME280;37611;51.794;21.590;2023-05-19T06:03:02;101002.42;;;11.47;100.00
51526;BME280;37611;51.794;21.590;2023-05-19T06:07:04;101007.94;;;11.52;100.00
51526;BME280;37611;51.794;21.590;2023-05-19T06:11:06;101009.23;;;11.58;100.00
51526;BME280;37611;51.794;21.590;2023-05-19T06:15:11;101007.80;;;11.62;100.00
51526;BME280;37611;51.794;21.590;2023-05-19T06:19:13;101008.14;;;11.62;100.00
51526;BME280;37611;51.794;21.590;2023-05-19T06:23:14;101014.35;;;11.69;100.00
51526;BME280;37611;51.794;21.590;2023-05-19T06:27:16;101011.81;;;11.68;100.00
51526;BME280;37611;51.794;21.590;2023-05-19T06:31:18;101015.00;;;11.62;100.00
51526;BME280;37611;51.794;21.590;2023-05-19T06:35:19;101016.98;;;11.64;100.00
51526;BME280;37611;51.794;21.590;2023-05-19T06:39:21;101018.86;;;11.60;100.00
51526;BME280;37611;51.794;21.590;2023-05-19T06:43:23;101021.21;;;11.53;100.00
51526;BME280;37611;51.794;21.590;2023-05-19T06:47:26;101023.10;;;11.55;100.00
51526;BME280;37611;51.794;21.590;2023-05-19T06:51:27;101021.50;;;11.64;100.00
51526;BME280;37611;51.794;21.590;2023-05-19T06:55:29;101024.00;;;11.67;100.00
51526;BME280;37611;51.794;21.590;2023-05-19T06:59:31;101022.96;;;11.71;100.00
51526;BME280;37611;51.794;21.590;2023-05-19T07:03:32;101020.90;;;11.79;100.00
51526;BME280;37611;51.794;21.590;2023-05-19T07:07:34;101023.91;;;11.87;100.00
51526;BME280;37611;51.794;21.590;2023-05-19T07:11:36;101022.48;;;11.91;100.00
51526;BME280;37611;51.794;21.590;2023-05-19T07:15:38;101024.20;;;11.88;100.00
51526;BME280;37611;51.794;21.590;2023-05-19T07:19:39;101020.17;;;11.85;100.00
51526;BME280;37611;51.794;21.590;2023-05-19T07:23:41;101020.59;;;11.87;100.00
51526;BME280;37611;51.794;21.590;2023-05-19T07:27:43;101021.84;;;11.90;100.00
51526;BME280;37611;51.794;21.590;2023-05-19T07:31:46;101024.71;;;11.97;100.00
51526;BME280;37611;51.794;21.590;2023-05-19T07:35:47;101024.00;;;12.04;100.00
51526;BME280;37611;51.794;21.590;2023-05-19T07:39:49;101026.91;;;12.08;100.00
51526;BME280;37611;51.794;21.590;2023-05-19T07:43:51;101020.71;;;12.16;100.00
51526;BME280;37611;51.794;21.590;2023-05-19T07:47:52;101020.26;;;12.22;100.00
51526;BME280;37611;51.794;21.590;2023-05-19T07:51:55;101022.86;;;12.28;100.00
51526;BME280;37611;51.794;21.590;2023-05-19T07:55:57;101015.95;;;12.29;100.00
51526;BME280;37611;51.794;21.590;2023-05-19T07:59:59;101018.38;;;12.35;100.00
51526;BME280;37611;51.794;21.590;2023-05-19T08:04:01;101015.22;;;12.40;100.00
51526;BME280;37611;51.794;21.590;2023-05-19T08:08:03;101015.79;;;12.44;100.00
51526;BME280;37611;51.794;21.590;2023-05-19T08:12:05;101010.23;;;12.47;100.00
51526;BME280;37611;51.794;21.590;2023-05-19T08:16:07;101006.34;;;12.49;100.00
51526;BME280;37611;51.794;21.590;2023-05-19T08:20:09;101005.89;;;12.54;100.00
51526;BME280;37611;51.794;21.590;2023-05-19T08:24:12;101012.61;;;12.65;100.00
51526;BME280;37611;51.794;21.590;2023-05-19T08:28:14;101013.41;;;12.70;100.00
51526;BME280;37611;51.794;21.590;2023-05-19T08:32:16;101010.08;;;12.72;100.00
51526;BME280;37611;51.794;21.590;2023-05-19T08:36:18;101012.39;;;12.81;100.00
51526;BME280;37611;51.794;21.590;2023-05-19T08:40:20;101015.40;;;13.00;100.00
51526;BME280;37611;51.794;21.590;2023-05-19T08:44:22;101015.05;;;13.13;100.00
51526;BME280;37611;51.794;21.590;2023-05-19T08:48:24;101015.55;;;13.19;100.00
51526;BME280;37611;51.794;21.590;2023-05-19T08:56:37;101015.05;;;13.39;100.00
51526;BME280;37611;51.794;21.590;2023-05-19T09:00:39;101015.48;;;13.48;100.00
51526;BME280;37611;51.794;21.590;2023-05-19T09:04:42;101016.56;;;13.49;100.00
51526;BME280;37611;51.794;21.590;2023-05-19T09:08:46;101015.13;;;13.50;100.00
51526;BME280;37611;51.794;21.590;2023-05-19T09:12:48;101017.03;;;13.46;100.00
51526;BME280;37611;51.794;21.590;2023-05-19T09:16:50;101021.47;;;13.46;100.00
51526;BME280;37611;51.794;21.590;2023-05-19T09:20:57;101017.98;;;13.42;100.00
51526;BME280;37611;51.794;21.590;2023-05-19T09:25:00;101020.35;;;13.43;100.00
51526;BME280;37611;51.794;21.590;2023-05-19T09:33:18;101018.09;;;13.48;100.00
51526;BME280;37611;51.794;21.590;2023-05-19T09:37:23;101020.25;;;13.46;100.00
51526;BME280;37611;51.794;21.590;2023-05-19T09:41:26;101022.53;;;13.44;100.00
51526;BME280;37611;51.794;21.590;2023-05-19T09:45:27;101022.30;;;13.44;100.00
51526;BME280;37611;51.794;21.590;2023-05-19T09:49:29;101021.48;;;13.40;100.00
51526;BME280;37611;51.794;21.590;2023-05-19T09:53:33;101020.84;;;13.40;100.00
51526;BME280;37611;51.794;21.590;2023-05-19T09:57:35;101024.38;;;13.47;100.00
51526;BME280;37611;51.794;21.590;2023-05-19T10:01:37;101019.95;;;13.51;100.00
51526;BME280;37611;51.794;21.590;2023-05-19T10:05:41;101021.38;;;13.62;100.00
51526;BME280;37611;51.794;21.590;2023-05-19T10:09:43;101021.33;;;13.64;100.00
51526;BME280;37611;51.794;21.590;2023-05-19T10:13:46;101019.29;;;13.65;100.00
51526;BME280;37611;51.794;21.590;2023-05-19T10:17:51;101018.95;;;13.72;100.00
51526;BME280;37611;51.794;21.590;2023-05-19T10:21:54;101020.46;;;13.80;100.00
51526;BME280;37611;51.794;21.590;2023-05-19T10:25:57;101019.95;;;13.78;100.00
51526;BME280;37611;51.794;21.590;2023-05-19T10:30:05;101015.80;;;13.81;100.00
51526;BME280;37611;51.794;21.590;2023-05-19T10:42:42;101010.20;;;13.93;100.00
51526;BME280;37611;51.794;21.590;2023-05-19T10:46:46;101011.67;;;13.98;100.00
51526;BME280;37611;51.794;21.590;2023-05-19T10:50:51;101009.17;;;14.06;100.00
51526;BME280;37611;51.794;21.590;2023-05-19T10:54:54;101008.89;;;14.16;100.00
51526;BME280;37611;51.794;21.590;2023-05-19T10:58:56;101012.16;;;14.31;100.00
51526;BME280;37611;51.794;21.590;2023-05-19T11:03:16;101011.64;;;14.43;100.00
51526;BME280;37611;51.794;21.590;2023-05-19T11:07:20;101011.86;;;14.43;100.00
51526;BME280;37611;51.794;21.590;2023-05-19T11:11:22;101010.02;;;14.44;100.00
51526;BME280;37611;51.794;21.590;2023-05-19T11:15:26;101012.77;;;14.32;100.00
51526;BME280;37611;51.794;21.590;2023-05-19T11:19:29;101012.55;;;14.27;100.00
51526;BME280;37611;51.794;21.590;2023-05-19T11:23:37;101012.84;;;14.30;100.00
51526;BME280;37611;51.794;21.590;2023-05-19T11:27:39;101013.38;;;14.28;100.00
51526;BME280;37611;51.794;21.590;2023-05-19T11:31:42;101018.11;;;14.24;100.00
51526;BME280;37611;51.794;21.590;2023-05-19T11:35:49;101017.56;;;14.23;100.00
51526;BME280;37611;51.794;21.590;2023-05-19T11:39:51;101013.81;;;14.20;100.00
51526;BME280;37611;51.794;21.590;2023-05-19T11:43:53;101015.38;;;14.18;100.00
51526;BME280;37611;51.794;21.590;2023-05-19T11:47:56;101014.26;;;14.26;100.00
51526;BME280;37611;51.794;21.590;2023-05-19T11:51:59;101009.55;;;14.36;100.00
51526;BME280;37611;51.794;21.590;2023-05-19T11:56:03;101013.30;;;14.30;100.00
51526;BME280;37611;51.794;21.590;2023-05-19T12:00:06;101014.40;;;14.28;100.00
51526;BME280;37611;51.794;21.590;2023-05-19T12:04:08;101013.08;;;14.16;100.00
51526;BME280;37611;51.794;21.590;2023-05-19T12:08:11;101011.28;;;14.11;100.00
51526;BME280;37611;51.794;21.590;2023-05-19T12:12:19;101010.35;;;14.17;100.00
51526;BME280;37611;51.794;21.590;2023-05-19T12:16:21;101012.56;;;14.25;100.00
51526;BME280;37611;51.794;21.590;2023-05-19T12:20:24;101013.67;;;14.35;100.00
51526;BME280;37611;51.794;21.590;2023-05-19T12:24:26;101011.18;;;14.44;100.00
51526;BME280;37611;51.794;21.590;2023-05-19T12:28:31;101008.66;;;14.56;100.00
51526;BME280;37611;51.794;21.590;2023-05-19T12:32:33;101004.17;;;14.60;100.00
51526;BME280;37611;51.794;21.590;2023-05-19T12:36:36;101000.03;;;14.68;100.00
51526;BME280;37611;51.794;21.590;2023-05-19T12:40:38;101003.02;;;14.79;100.00
51526;BME280;37611;51.794;21.590;2023-05-19T12:44:45;101001.27;;;14.82;100.00
51526;BME280;37611;51.794;21.590;2023-05-19T12:48:47;101005.98;;;14.88;100.00
51526;BME280;37611;51.794;21.590;2023-05-19T12:52:49;101003.71;;;14.89;100.00
51526;BME280;37611;51.794;21.590;2023-05-19T12:56:56;101010.80;;;14.85;100.00
51526;BME280;37611;51.794;21.590;2023-05-19T13:00:58;101006.23;;;14.80;100.00
51526;BME280;37611;51.794;21.590;2023-05-19T13:05:02;101007.06;;;14.77;100.00
51526;BME280;37611;51.794;21.590;2023-05-19T13:09:05;101003.84;;;14.79;100.00
51526;BME280;37611;51.794;21.590;2023-05-19T13:13:08;101002.60;;;14.81;100.00
51526;BME280;37611;51.794;21.590;2023-05-19T13:17:10;100999.31;;;14.82;100.00
51526;BME280;37611;51.794;21.590;2023-05-19T13:21:12;100997.43;;;14.85;100.00
51526;BME280;37611;51.794;21.590;2023-05-19T13:25:14;101000.64;;;14.80;100.00
51526;BME280;37611;51.794;21.590;2023-05-19T13:29:16;100997.97;;;14.71;100.00
51526;BME280;37611;51.794;21.590;2023-05-19T13:33:18;100994.66;;;14.71;100.00
51526;BME280;37611;51.794;21.590;2023-05-19T13:37:20;100996.91;;;14.67;100.00
51526;BME280;37611;51.794;21.590;2023-05-19T13:41:23;100995.70;;;14.65;100.00
51526;BME280;37611;51.794;21.590;2023-05-19T13:45:26;100994.48;;;14.67;100.00
51526;BME280;37611;51.794;21.590;2023-05-19T13:49:28;100992.63;;;14.64;100.00
51526;BME280;37611;51.794;21.590;2023-05-19T13:53:30;100992.75;;;14.62;100.00
51526;BME280;37611;51.794;21.590;2023-05-19T13:57:33;100987.66;;;14.58;100.00
51526;BME280;37611;51.794;21.590;2023-05-19T14:01:35;100987.35;;;14.56;100.00
51526;BME280;37611;51.794;21.590;2023-05-19T14:05:37;100988.05;;;14.54;100.00
51526;BME280;37611;51.794;21.590;2023-05-19T14:09:39;100985.71;;;14.55;100.00
51526;BME280;37611;51.794;21.590;2023-05-19T14:13:41;100986.94;;;14.55;100.00
51526;BME280;37611;51.794;21.590;2023-05-19T14:17:42;100992.36;;;14.55;100.00
51526;BME280;37611;51.794;21.590;2023-05-19T14:21:44;100989.38;;;14.53;100.00
51526;BME280;37611;51.794;21.590;2023-05-19T14:25:46;100994.40;;;14.51;100.00
51526;BME280;37611;51.794;21.590;2023-05-19T14:29:48;100994.60;;;14.44;100.00
51526;BME280;37611;51.794;21.590;2023-05-19T14:33:50;100996.66;;;14.38;100.00
51526;BME280;37611;51.794;21.590;2023-05-19T14:37:52;100999.88;;;14.36;100.00
51526;BME280;37611;51.794;21.590;2023-05-19T14:41:53;101002.73;;;14.37;100.00
51526;BME280;37611;51.794;21.590;2023-05-19T14:45:56;101004.14;;;14.37;100.00
51526;BME280;37611;51.794;21.590;2023-05-19T14:49:58;101004.74;;;14.33;100.00
51526;BME280;37611;51.794;21.590;2023-05-19T14:53:59;101002.55;;;14.33;100.00
51526;BME280;37611;51.794;21.590;2023-05-19T14:58:02;101002.91;;;14.39;100.00
51526;BME280;37611;51.794;21.590;2023-05-19T15:02:04;101002.92;;;14.44;100.00
51526;BME280;37611;51.794;21.590;2023-05-19T15:06:09;101004.77;;;14.45;100.00
51526;BME280;37611;51.794;21.590;2023-05-19T15:10:11;101004.05;;;14.45;100.00
51526;BME280;37611;51.794;21.590;2023-05-19T15:14:13;101006.29;;;14.48;100.00
51526;BME280;37611;51.794;21.590;2023-05-19T15:18:14;101004.63;;;14.47;100.00
51526;BME280;37611;51.794;21.590;2023-05-19T15:22:18;101009.11;;;14.46;100.00
51526;BME280;37611;51.794;21.590;2023-05-19T15:26:20;101006.21;;;14.40;100.00
51526;BME280;37611;51.794;21.590;2023-05-19T15:30:22;101003.03;;;14.34;100.00
51526;BME280;37611;51.794;21.590;2023-05-19T15:34:24;100999.59;;;14.35;100.00
51526;BME280;37611;51.794;21.590;2023-05-19T15:38:26;100995.48;;;14.39;100.00
51526;BME280;37611;51.794;21.590;2023-05-19T15:42:27;100993.80;;;14.44;100.00
51526;BME280;37611;51.794;21.590;2023-05-19T15:46:29;100993.77;;;14.45;100.00
51526;BME280;37611;51.794;21.590;2023-05-19T15:50:31;100989.59;;;14.49;100.00
51526;BME280;37611;51.794;21.590;2023-05-19T15:54:33;100989.23;;;14.49;100.00
51526;BME280;37611;51.794;21.590;2023-05-19T15:58:35;100989.03;;;14.50;100.00
51526;BME280;37611;51.794;21.590;2023-05-19T16:02:36;100990.73;;;14.48;100.00
51526;BME280;37611;51.794;21.590;2023-05-19T16:06:38;100986.95;;;14.51;100.00
51526;BME280;37611;51.794;21.590;2023-05-19T16:10:40;100984.75;;;14.54;100.00
51526;BME280;37611;51.794;21.590;2023-05-19T16:14:41;100984.97;;;14.52;100.00
51526;BME280;37611;51.794;21.590;2023-05-19T16:18:43;100987.88;;;14.47;100.00
51526;BME280;37611;51.794;21.590;2023-05-19T16:22:45;100988.85;;;14.42;100.00
51526;BME280;37611;51.794;21.590;2023-05-19T16:26:46;100991.55;;;14.40;100.00
51526;BME280;37611;51.794;21.590;2023-05-19T16:30:49;100993.38;;;14.41;100.00
51526;BME280;37611;51.794;21.590;2023-05-19T16:34:50;100994.34;;;14.42;100.00
51526;BME280;37611;51.794;21.590;2023-05-19T16:38:52;100993.81;;;14.40;100.00
51526;BME280;37611;51.794;21.590;2023-05-19T16:42:54;100993.19;;;14.39;100.00
51526;BME280;37611;51.794;21.590;2023-05-19T16:46:56;100992.29;;;14.40;100.00
51526;BME280;37611;51.794;21.590;2023-05-19T16:50:59;100996.09;;;14.40;100.00
51526;BME280;37611;51.794;21.590;2023-05-19T16:55:08;100995.66;;;14.37;100.00
51526;BME280;37611;51.794;21.590;2023-05-19T16:59:10;100993.16;;;14.36;100.00
51526;BME280;37611;51.794;21.590;2023-05-19T17:03:11;100993.57;;;14.33;100.00
51526;BME280;37611;51.794;21.590;2023-05-19T17:07:13;100997.48;;;14.30;100.00
51526;BME280;37611;51.794;21.590;2023-05-19T17:11:16;100996.69;;;14.27;100.00
51526;BME280;37611;51.794;21.590;2023-05-19T17:15:17;101006.84;;;14.24;100.00
51526;BME280;37611;51.794;21.590;2023-05-19T17:19:19;101000.21;;;14.22;100.00
51526;BME280;37611;51.794;21.590;2023-05-19T17:23:22;101002.98;;;14.20;100.00
51526;BME280;37611;51.794;21.590;2023-05-19T17:27:23;101002.07;;;14.19;100.00
51526;BME280;37611;51.794;21.590;2023-05-19T17:31:25;100997.94;;;14.18;100.00
51526;BME280;37611;51.794;21.590;2023-05-19T17:35:27;101001.83;;;14.18;100.00
51526;BME280;37611;51.794;21.590;2023-05-19T17:39:28;100999.59;;;14.19;100.00
51526;BME280;37611;51.794;21.590;2023-05-19T17:43:30;100997.93;;;14.21;100.00
51526;BME280;37611;51.794;21.590;2023-05-19T17:47:32;101000.77;;;14.25;100.00
51526;BME280;37611;51.794;21.590;2023-05-19T17:51:35;101001.70;;;14.27;100.00
51526;BME280;37611;51.794;21.590;2023-05-19T17:55:36;101001.30;;;14.25;100.00
51526;BME280;37611;51.794;21.590;2023-05-19T17:59:38;101006.33;;;14.22;100.00
51526;BME280;37611;51.794;21.590;2023-05-19T18:03:41;101007.75;;;14.19;100.00
51526;BME280;37611;51.794;21.590;2023-05-19T18:07:49;101005.50;;;14.15;100.00
51526;BME280;37611;51.794;21.590;2023-05-19T18:11:51;101007.83;;;14.09;100.00
51526;BME280;37611;51.794;21.590;2023-05-19T18:15:53;101010.02;;;14.04;100.00
51526;BME280;37611;51.794;21.590;2023-05-19T18:19:57;101013.11;;;14.00;100.00
51526;BME280;37611;51.794;21.590;2023-05-19T18:23:59;101015.54;;;13.95;100.00
51526;BME280;37611;51.794;21.590;2023-05-19T18:28:03;101018.26;;;13.90;100.00
51526;BME280;37611;51.794;21.590;2023-05-19T18:32:05;101022.90;;;13.86;100.00
51526;BME280;37611;51.794;21.590;2023-05-19T18:36:07;101024.54;;;13.82;100.00
51526;BME280;37611;51.794;21.590;2023-05-19T18:40:09;101024.09;;;13.77;100.00
51526;BME280;37611;51.794;21.590;2023-05-19T18:44:11;101022.45;;;13.74;100.00
51526;BME280;37611;51.794;21.590;2023-05-19T18:48:12;101023.27;;;13.73;100.00
51526;BME280;37611;51.794;21.590;2023-05-19T18:52:15;101021.61;;;13.74;100.00
51526;BME280;37611;51.794;21.590;2023-05-19T18:56:24;101020.54;;;13.72;100.00
51526;BME280;37611;51.794;21.590;2023-05-19T19:00:26;101027.63;;;13.66;100.00
51526;BME280;37611;51.794;21.590;2023-05-19T19:04:29;101030.41;;;13.61;100.00
51526;BME280;37611;51.794;21.590;2023-05-19T19:08:30;101038.47;;;13.60;100.00
51526;BME280;37611;51.794;21.590;2023-05-19T19:12:32;101039.09;;;13.59;100.00
51526;BME280;37611;51.794;21.590;2023-05-19T19:16:34;101043.41;;;13.59;100.00
51526;BME280;37611;51.794;21.590;2023-05-19T19:20:37;101047.85;;;13.61;100.00
51526;BME280;37611;51.794;21.590;2023-05-19T19:24:38;101044.92;;;13.64;100.00
51526;BME280;37611;51.794;21.590;2023-05-19T19:28:43;101046.98;;;13.66;100.00
51526;BME280;37611;51.794;21.590;2023-05-19T19:32:45;101047.23;;;13.64;100.00
51526;BME280;37611;51.794;21.590;2023-05-19T19:36:47;101047.90;;;13.60;100.00
51526;BME280;37611;51.794;21.590;2023-05-19T19:40:50;101045.69;;;13.54;100.00
51526;BME280;37611;51.794;21.590;2023-05-19T19:44:55;101050.91;;;13.53;100.00
51526;BME280;37611;51.794;21.590;2023-05-19T19:48:57;101054.58;;;13.53;100.00
51526;BME280;37611;51.794;21.590;2023-05-19T19:53:02;101055.25;;;13.54;100.00
51526;BME280;37611;51.794;21.590;2023-05-19T19:57:04;101057.20;;;13.50;100.00
51526;BME280;37611;51.794;21.590;2023-05-19T20:01:06;101056.77;;;13.48;100.00
51526;BME280;37611;51.794;21.590;2023-05-19T20:05:08;101058.80;;;13.47;100.00
51526;BME280;37611;51.794;21.590;2023-05-19T20:09:10;101055.24;;;13.44;100.00
51526;BME280;37611;51.794;21.590;2023-05-19T20:13:13;101058.58;;;13.42;100.00
51526;BME280;37611;51.794;21.590;2023-05-19T20:17:16;101061.06;;;13.42;100.00
51526;BME280;37611;51.794;21.590;2023-05-19T20:21:18;101061.75;;;13.42;100.00
51526;BME280;37611;51.794;21.590;2023-05-19T20:25:19;101067.50;;;13.45;100.00
51526;BME280;37611;51.794;21.590;2023-05-19T20:29:21;101062.42;;;13.44;100.00
51526;BME280;37611;51.794;21.590;2023-05-19T20:33:24;101064.04;;;13.46;100.00
51526;BME280;37611;51.794;21.590;2023-05-19T20:37:25;101064.17;;;13.44;100.00
51526;BME280;37611;51.794;21.590;2023-05-19T20:41:27;101059.19;;;13.47;100.00
51526;BME280;37611;51.794;21.590;2023-05-19T20:45:29;101058.59;;;13.52;100.00
51526;BME280;37611;51.794;21.590;2023-05-19T20:49:30;101055.89;;;13.52;100.00
51526;BME280;37611;51.794;21.590;2023-05-19T20:53:32;101051.48;;;13.47;100.00
51526;BME280;37611;51.794;21.590;2023-05-19T20:57:34;101050.59;;;13.48;100.00
51526;BME280;37611;51.794;21.590;2023-05-19T21:01:36;101049.41;;;13.46;100.00